sensor_id;sensor_type;location;lat;lon;timestamp;pressure;altitude;pressure_sealevel;temperature;humidity
10464;BME280;5279;42.048;24.638;2023-05-19T00:00:10;97577.06;;;14.39;100.00
10464;BME280;5279;42.048;24.638;2023-05-19T00:02:40;97571.75;;;14.39;100.00
10464;BME280;5279;42.048;24.638;2023-05-19T00:05:10;97572.25;;;14.42;100.00
10464;BME280;5279;42.048;24.638;2023-05-19T00:07:40;97576.91;;;14.40;100.00
10464;BME280;5279;42.048;24.638;2023-05-19T00:10:10;97565.41;;;14.32;100.00
10464;BME280;5279;42.048;24.638;2023-05-19T00:12:38;97557.41;;;14.32;100.00
10464;BME280;5279;42.048;24.638;2023-05-19T00:15:07;97563.56;;;14.48;100.00
10464;BME280;5279;42.048;24.638;2023-05-19T00:17:35;97559.44;;;14.38;100.00
10464;BME280;5279;42.048;24.638;2023-05-19T00:20:03;97556.25;;;14.42;100.00
10464;BME280;5279;42.048;24.638;2023-05-19T00:22:35;97555.44;;;14.34;100.00
10464;BME280;5279;42.048;24.638;2023-05-19T00:25:05;97556.75;;;14.38;100.00
10464;BME280;5279;42.048;24.638;2023-05-19T00:27:34;97558.25;;;14.40;100.00
10464;BME280;5279;42.048;24.638;2023-05-19T00:30:04;97559.91;;;14.41;100.00
10464;BME280;5279;42.048;24.638;2023-05-19T00:32:32;97556.56;;;14.47;100.00
10464;BME280;5279;42.048;24.638;2023-05-19T00:35:07;97556.44;;;14.41;100.00
10464;BME280;5279;42.048;24.638;2023-05-19T00:37:35;97550.75;;;14.36;100.00
10464;BME280;5279;42.048;24.638;2023-05-19T00:40:05;97552.09;;;14.40;100.00
10464;BME280;5279;42.048;24.638;2023-05-19T00:42:33;97553.75;;;14.41;100.00
10464;BME280;5279;42.048;24.638;2023-05-19T00:45:00;97561.41;;;14.44;100.00
10464;BME280;5279;42.048;24.638;2023-05-19T00:47:28;97555.06;;;14.45;100.00
10464;BME280;5279;42.048;24.638;2023-05-19T00:49:58;97556.09;;;14.44;100.00
10464;BME280;5279;42.048;24.638;2023-05-19T00:52:28;97549.72;;;14.45;100.00
10464;BME280;5279;42.048;24.638;2023-05-19T00:54:56;97550.41;;;14.39;100.00
10464;BME280;5279;42.048;24.638;2023-05-19T00:57:27;97554.91;;;14.38;100.00
10464;BME280;5279;42.048;24.638;2023-05-19T00:59:55;97545.88;;;14.47;100.00
10464;BME280;5279;42.048;24.638;2023-05-19T01:02:23;97537.78;;;14.41;100.00
10464;BME280;5279;42.048;24.638;2023-05-19T01:04:51;97546.41;;;14.43;100.00
10464;BME280;5279;42.048;24.638;2023-05-19T01:07:21;97545.91;;;14.39;100.00
10464;BME280;5279;42.048;24.638;2023-05-19T01:09:50;97527.44;;;14.21;100.00
10464;BME280;5279;42.048;24.638;2023-05-19T01:12:21;97545.09;;;14.22;100.00
10464;BME280;5279;42.048;24.638;2023-05-19T01:14:50;97532.41;;;14.16;100.00
10464;BME280;5279;42.048;24.638;2023-05-19T01:17:20;97548.75;;;14.13;100.00
10464;BME280;5279;42.048;24.638;2023-05-19T01:19:59;97538.75;;;14.23;100.00
10464;BME280;5279;42.048;24.638;2023-05-19T01:26:02;97543.09;;;14.24;100.00
10464;BME280;5279;42.048;24.638;2023-05-19T01:28:47;97536.44;;;14.29;100.00
10464;BME280;5279;42.048;24.638;2023-05-19T01:31:22;97541.09;;;14.35;100.00
10464;BME280;5279;42.048;24.638;2023-05-19T01:33:52;97528.44;;;14.29;100.00
10464;BME280;5279;42.048;24.638;2023-05-19T01:36:21;97533.41;;;14.32;100.00
10464;BME280;5279;42.048;24.638;2023-05-19T01:38:51;97530.06;;;14.30;100.00
10464;BME280;5279;42.048;24.638;2023-05-19T01:41:20;97523.09;;;14.29;100.00
10464;BME280;5279;42.048;24.638;2023-05-19T01:43:48;97540.09;;;14.36;100.00
10464;BME280;5279;42.048;24.638;2023-05-19T01:46:16;97544.75;;;14.42;100.00
10464;BME280;5279;42.048;24.638;2023-05-19T01:48:46;97545.75;;;14.41;100.00
10464;BME280;5279;42.048;24.638;2023-05-19T01:51:14;97550.75;;;14.36;100.00
10464;BME280;5279;42.048;24.638;2023-05-19T01:53:44;97548.56;;;14.31;100.00
10464;BME280;5279;42.048;24.638;2023-05-19T01:56:15;97541.06;;;14.27;100.00
10464;BME280;5279;42.048;24.638;2023-05-19T01:58:49;97550.41;;;14.39;100.00
10464;BME280;5279;42.048;24.638;2023-05-19T02:01:27;97549.41;;;14.32;100.00
10464;BME280;5279;42.048;24.638;2023-05-19T02:04:15;97553.41;;;14.36;100.00
10464;BME280;5279;42.048;24.638;2023-05-19T02:06:51;97546.75;;;14.23;100.00
10464;BME280;5279;42.048;24.638;2023-05-19T02:09:24;97556.72;;;14.30;100.00
10464;BME280;5279;42.048;24.638;2023-05-19T02:11:55;97546.59;;;14.33;100.00
10464;BME280;5279;42.048;24.638;2023-05-19T02:14:29;97557.06;;;14.43;100.00
10464;BME280;5279;42.048;24.638;2023-05-19T02:17:00;97552.75;;;14.34;100.00
10464;BME280;5279;42.048;24.638;2023-05-19T02:19:34;97551.72;;;14.27;100.00
10464;BME280;5279;42.048;24.638;2023-05-19T02:22:01;97555.09;;;14.37;100.00
10464;BME280;5279;42.048;24.638;2023-05-19T02:24:29;97555.75;;;14.39;100.00
10464;BME280;5279;42.048;24.638;2023-05-19T02:26:56;97550.91;;;14.42;100.00
10464;BME280;5279;42.048;24.638;2023-05-19T02:29:24;97551.75;;;14.43;100.00
10464;BME280;5279;42.048;24.638;2023-05-19T02:31:53;97557.75;;;14.37;100.00
10464;BME280;5279;42.048;24.638;2023-05-19T02:34:23;97569.75;;;14.41;100.00
10464;BME280;5279;42.048;24.638;2023-05-19T02:36:52;97552.75;;;14.34;100.00
10464;BME280;5279;42.048;24.638;2023-05-19T02:39:21;97565.06;;;14.43;100.00
10464;BME280;5279;42.048;24.638;2023-05-19T02:41:48;97559.09;;;14.33;100.00
10464;BME280;5279;42.048;24.638;2023-05-19T02:44:16;97559.78;;;14.35;100.00
10464;BME280;5279;42.048;24.638;2023-05-19T02:46:43;97563.59;;;14.40;100.00
10464;BME280;5279;42.048;24.638;2023-05-19T02:49:10;97562.09;;;14.38;100.00
10464;BME280;5279;42.048;24.638;2023-05-19T02:51:37;97568.91;;;14.40;100.00
10464;BME280;5279;42.048;24.638;2023-05-19T02:54:07;97540.56;;;14.23;100.00
10464;BME280;5279;42.048;24.638;2023-05-19T02:56:34;97564.25;;;14.34;100.00
10464;BME280;5279;42.048;24.638;2023-05-19T02:59:02;97558.22;;;14.32;100.00
10464;BME280;5279;42.048;24.638;2023-05-19T03:01:31;97569.75;;;14.41;100.00
10464;BME280;5279;42.048;24.638;2023-05-19T03:03:58;97562.75;;;14.40;100.00
10464;BME280;5279;42.048;24.638;2023-05-19T03:06:25;97569.88;;;14.47;100.00
10464;BME280;5279;42.048;24.638;2023-05-19T03:08:54;97567.72;;;14.59;100.00
10464;BME280;5279;42.048;24.638;2023-05-19T03:11:23;97570.03;;;14.54;100.00
10464;BME280;5279;42.048;24.638;2023-05-19T03:13:51;97573.72;;;14.53;100.00
10464;BME280;5279;42.048;24.638;2023-05-19T03:16:18;97571.72;;;14.55;100.00
10464;BME280;5279;42.048;24.638;2023-05-19T03:18:46;97560.41;;;14.53;100.00
10464;BME280;5279;42.048;24.638;2023-05-19T03:21:13;97581.06;;;14.59;100.00
10464;BME280;5279;42.048;24.638;2023-05-19T03:23:41;97582.00;;;14.66;100.00
10464;BME280;5279;42.048;24.638;2023-05-19T03:26:08;97584.88;;;14.64;100.00
10464;BME280;5279;42.048;24.638;2023-05-19T03:28:39;97587.34;;;14.74;99.39
10464;BME280;5279;42.048;24.638;2023-05-19T03:31:06;97588.50;;;14.71;100.00
10464;BME280;5279;42.048;24.638;2023-05-19T03:33:37;97585.97;;;14.78;100.00
10464;BME280;5279;42.048;24.638;2023-05-19T03:36:06;97583.66;;;14.83;97.88
10464;BME280;5279;42.048;24.638;2023-05-19T03:38:34;97578.81;;;14.78;100.00
10464;BME280;5279;42.048;24.638;2023-05-19T03:41:02;97587.97;;;14.84;100.00
10464;BME280;5279;42.048;24.638;2023-05-19T03:43:30;97600.63;;;14.90;100.00
10464;BME280;5279;42.048;24.638;2023-05-19T03:45:59;97589.94;;;14.90;100.00
10464;BME280;5279;42.048;24.638;2023-05-19T03:48:26;97588.94;;;14.91;100.00
10464;BME280;5279;42.048;24.638;2023-05-19T03:50:53;97589.94;;;14.90;98.90
10464;BME280;5279;42.048;24.638;2023-05-19T03:53:20;97590.63;;;14.92;100.00
10464;BME280;5279;42.048;24.638;2023-05-19T03:55:47;97589.25;;;15.04;96.01
10464;BME280;5279;42.048;24.638;2023-05-19T03:58:15;97600.03;;;15.11;99.46
10464;BME280;5279;42.048;24.638;2023-05-19T04:00:42;97593.22;;;15.16;100.00
10464;BME280;5279;42.048;24.638;2023-05-19T04:03:10;97604.53;;;15.18;99.30
10464;BME280;5279;42.048;24.638;2023-05-19T04:05:37;97599.84;;;15.20;98.42
10464;BME280;5279;42.048;24.638;2023-05-19T04:08:04;97599.50;;;15.23;95.70
10464;BME280;5279;42.048;24.638;2023-05-19T04:10:31;97589.16;;;15.20;98.37
10464;BME280;5279;42.048;24.638;2023-05-19T04:12:58;97600.13;;;15.33;100.00
10464;BME280;5279;42.048;24.638;2023-05-19T04:15:25;97610.66;;;15.27;98.01
10464;BME280;5279;42.048;24.638;2023-05-19T04:17:52;97606.16;;;15.27;98.99
10464;BME280;5279;42.048;24.638;2023-05-19T04:20:20;97606.00;;;15.21;100.00
10464;BME280;5279;42.048;24.638;2023-05-19T04:22:47;97606.16;;;15.27;98.21
10464;BME280;5279;42.048;24.638;2023-05-19T04:25:14;97596.16;;;15.21;98.69
10464;BME280;5279;42.048;24.638;2023-05-19T04:27:41;97592.41;;;15.39;100.00
10464;BME280;5279;42.048;24.638;2023-05-19T04:30:08;97602.84;;;15.25;99.16
10464;BME280;5279;42.048;24.638;2023-05-19T04:32:36;97604.81;;;15.23;96.36
10464;BME280;5279;42.048;24.638;2023-05-19T04:35:04;97596.81;;;15.31;98.00
10464;BME280;5279;42.048;24.638;2023-05-19T04:37:32;97607.47;;;15.31;100.00
10464;BME280;5279;42.048;24.638;2023-05-19T04:40:03;97615.50;;;15.23;99.09
10464;BME280;5279;42.048;24.638;2023-05-19T04:42:31;97608.97;;;15.26;99.77
10464;BME280;5279;42.048;24.638;2023-05-19T04:44:58;97609.47;;;15.29;100.00
10464;BME280;5279;42.048;24.638;2023-05-19T04:47:24;97606.16;;;15.27;100.00
10464;BME280;5279;42.048;24.638;2023-05-19T04:49:52;97619.00;;;15.24;100.00
10464;BME280;5279;42.048;24.638;2023-05-19T04:52:19;97613.97;;;15.29;100.00
10464;BME280;5279;42.048;24.638;2023-05-19T04:54:48;97617.81;;;15.35;100.00
10464;BME280;5279;42.048;24.638;2023-05-19T04:57:15;97631.75;;;15.45;100.00
10464;BME280;5279;42.048;24.638;2023-05-19T04:59:42;97635.78;;;15.49;100.00
10464;BME280;5279;42.048;24.638;2023-05-19T05:02:09;97624.41;;;15.55;100.00
10464;BME280;5279;42.048;24.638;2023-05-19T05:04:36;97631.44;;;15.56;100.00
10464;BME280;5279;42.048;24.638;2023-05-19T05:07:06;97636.38;;;15.67;100.00
10464;BME280;5279;42.048;24.638;2023-05-19T05:09:33;97637.56;;;15.64;100.00
10464;BME280;5279;42.048;24.638;2023-05-19T05:12:02;97647.97;;;15.82;98.27
10464;BME280;5279;42.048;24.638;2023-05-19T05:14:32;97645.22;;;15.90;100.00
10464;BME280;5279;42.048;24.638;2023-05-19T05:17:00;97643.06;;;16.16;100.00
10464;BME280;5279;42.048;24.638;2023-05-19T05:19:27;97640.16;;;16.26;100.00
10464;BME280;5279;42.048;24.638;2023-05-19T05:21:55;97640.47;;;16.46;100.00
10464;BME280;5279;42.048;24.638;2023-05-19T05:24:23;97644.28;;;16.51;96.52
10464;BME280;5279;42.048;24.638;2023-05-19T05:26:50;97642.38;;;16.60;98.85
10464;BME280;5279;42.048;24.638;2023-05-19T05:29:18;97629.78;;;16.68;100.00
10464;BME280;5279;42.048;24.638;2023-05-19T05:31:45;97639.94;;;16.87;99.91
10464;BME280;5279;42.048;24.638;2023-05-19T05:34:12;97632.22;;;16.92;100.00
10464;BME280;5279;42.048;24.638;2023-05-19T05:36:39;97648.91;;;17.09;90.03
10464;BME280;5279;42.048;24.638;2023-05-19T05:39:06;97644.84;;;17.28;93.00
10464;BME280;5279;42.048;24.638;2023-05-19T05:41:33;97650.31;;;17.34;85.55
10464;BME280;5279;42.048;24.638;2023-05-19T05:44:02;97652.34;;;17.47;85.13
10464;BME280;5279;42.048;24.638;2023-05-19T05:46:31;97656.38;;;17.43;82.03
10464;BME280;5279;42.048;24.638;2023-05-19T05:48:58;97637.91;;;17.33;81.62
10464;BME280;5279;42.048;24.638;2023-05-19T05:51:25;97648.63;;;17.48;83.68
10464;BME280;5279;42.048;24.638;2023-05-19T05:53:53;97640.78;;;17.46;81.50
10464;BME280;5279;42.048;24.638;2023-05-19T05:56:21;97648.06;;;17.53;77.11
10464;BME280;5279;42.048;24.638;2023-05-19T05:58:48;97645.59;;;17.66;81.45
10464;BME280;5279;42.048;24.638;2023-05-19T06:01:15;97651.38;;;17.84;85.05
10464;BME280;5279;42.048;24.638;2023-05-19T06:03:43;97650.88;;;17.95;82.86
10464;BME280;5279;42.048;24.638;2023-05-19T06:06:10;97635.16;;;17.92;80.81
10464;BME280;5279;42.048;24.638;2023-05-19T06:08:37;97665.69;;;18.12;76.10
10464;BME280;5279;42.048;24.638;2023-05-19T06:11:04;97660.97;;;17.93;78.04
10464;BME280;5279;42.048;24.638;2023-05-19T06:13:33;97659.28;;;17.92;79.47
10464;BME280;5279;42.048;24.638;2023-05-19T06:16:00;97660.31;;;17.91;79.32
10464;BME280;5279;42.048;24.638;2023-05-19T06:18:27;97662.75;;;18.07;80.37
10464;BME280;5279;42.048;24.638;2023-05-19T06:21:11;97665.22;;;18.23;84.54
10464;BME280;5279;42.048;24.638;2023-05-19T06:23:38;97667.44;;;18.41;85.28
10464;BME280;5279;42.048;24.638;2023-05-19T06:26:05;97664.00;;;18.47;82.69
10464;BME280;5279;42.048;24.638;2023-05-19T06:28:33;97667.97;;;18.30;80.35
10464;BME280;5279;42.048;24.638;2023-05-19T06:31:00;97670.94;;;18.20;76.17
10464;BME280;5279;42.048;24.638;2023-05-19T06:33:26;97674.41;;;17.99;76.10
10464;BME280;5279;42.048;24.638;2023-05-19T06:35:53;97683.53;;;17.84;78.08
10464;BME280;5279;42.048;24.638;2023-05-19T06:38:22;97682.25;;;17.80;77.79
10464;BME280;5279;42.048;24.638;2023-05-19T06:40:48;97682.03;;;17.81;84.37
10464;BME280;5279;42.048;24.638;2023-05-19T06:43:15;97681.38;;;17.94;86.34
10464;BME280;5279;42.048;24.638;2023-05-19T06:45:42;97671.56;;;18.01;89.18
10464;BME280;5279;42.048;24.638;2023-05-19T06:48:09;97680.53;;;18.08;86.63
10464;BME280;5279;42.048;24.638;2023-05-19T06:50:36;97684.91;;;18.16;88.49
10464;BME280;5279;42.048;24.638;2023-05-19T06:53:03;97694.59;;;18.31;82.68
10464;BME280;5279;42.048;24.638;2023-05-19T06:55:31;97689.66;;;18.35;78.90
10464;BME280;5279;42.048;24.638;2023-05-19T06:57:58;97692.28;;;18.28;77.07
10464;BME280;5279;42.048;24.638;2023-05-19T07:00:25;97673.94;;;18.32;81.51
10464;BME280;5279;42.048;24.638;2023-05-19T07:02:52;97681.25;;;18.59;82.96
10464;BME280;5279;42.048;24.638;2023-05-19T07:05:19;97677.41;;;18.68;85.62
10464;BME280;5279;42.048;24.638;2023-05-19T07:08:01;97687.94;;;18.70;79.05
10464;BME280;5279;42.048;24.638;2023-05-19T07:10:29;97689.28;;;18.80;80.97
10464;BME280;5279;42.048;24.638;2023-05-19T07:12:57;97681.81;;;18.54;77.68
10464;BME280;5279;42.048;24.638;2023-05-19T07:15:24;97680.66;;;18.42;75.50
10464;BME280;5279;42.048;24.638;2023-05-19T07:17:51;97683.41;;;18.28;78.97
10464;BME280;5279;42.048;24.638;2023-05-19T07:20:18;97691.66;;;18.26;77.90
10464;BME280;5279;42.048;24.638;2023-05-19T07:22:45;97682.63;;;18.34;78.95
10464;BME280;5279;42.048;24.638;2023-05-19T07:25:11;97681.78;;;18.33;77.15
10464;BME280;5279;42.048;24.638;2023-05-19T07:27:38;97674.91;;;18.45;82.16
10464;BME280;5279;42.048;24.638;2023-05-19T07:30:08;97661.88;;;18.42;78.12
10464;BME280;5279;42.048;24.638;2023-05-19T07:32:35;97677.22;;;18.70;80.41
10464;BME280;5279;42.048;24.638;2023-05-19T07:35:02;97680.50;;;18.93;74.32
10464;BME280;5279;42.048;24.638;2023-05-19T07:37:29;97675.31;;;18.91;77.08
10464;BME280;5279;42.048;24.638;2023-05-19T07:39:56;97681.38;;;19.00;74.03
10464;BME280;5279;42.048;24.638;2023-05-19T07:42:23;97681.75;;;18.97;72.69
10464;BME280;5279;42.048;24.638;2023-05-19T07:44:50;97687.91;;;18.91;74.55
10464;BME280;5279;42.048;24.638;2023-05-19T07:47:18;97680.75;;;18.98;77.63
10464;BME280;5279;42.048;24.638;2023-05-19T07:49:45;97692.84;;;19.15;76.70
10464;BME280;5279;42.048;24.638;2023-05-19T07:52:13;97679.03;;;19.18;74.93
10464;BME280;5279;42.048;24.638;2023-05-19T07:54:42;97688.75;;;19.19;75.26
10464;BME280;5279;42.048;24.638;2023-05-19T07:57:09;97691.94;;;19.29;76.96
10464;BME280;5279;42.048;24.638;2023-05-19T07:59:36;97690.09;;;19.36;78.26
10464;BME280;5279;42.048;24.638;2023-05-19T08:02:03;97684.44;;;19.25;74.47
10464;BME280;5279;42.048;24.638;2023-05-19T08:04:32;97671.75;;;19.12;79.75
10464;BME280;5279;42.048;24.638;2023-05-19T08:06:59;97679.97;;;19.04;77.74
10464;BME280;5279;42.048;24.638;2023-05-19T08:09:25;97697.81;;;19.18;79.10
10464;BME280;5279;42.048;24.638;2023-05-19T08:11:53;97699.19;;;19.35;76.59
10464;BME280;5279;42.048;24.638;2023-05-19T08:14:20;97696.94;;;19.39;77.83
10464;BME280;5279;42.048;24.638;2023-05-19T08:16:47;97702.06;;;19.34;75.16
10464;BME280;5279;42.048;24.638;2023-05-19T08:19:14;97705.09;;;19.45;74.23
10464;BME280;5279;42.048;24.638;2023-05-19T08:21:42;97706.88;;;19.73;75.79
10464;BME280;5279;42.048;24.638;2023-05-19T08:24:09;97706.53;;;19.89;73.66
10464;BME280;5279;42.048;24.638;2023-05-19T08:26:36;97710.78;;;20.17;73.20
10464;BME280;5279;42.048;24.638;2023-05-19T08:29:03;97712.16;;;20.54;66.42
10464;BME280;5279;42.048;24.638;2023-05-19T08:31:30;97693.16;;;21.15;66.42
10464;BME280;5279;42.048;24.638;2023-05-19T08:33:57;97692.41;;;21.59;64.12
10464;BME280;5279;42.048;24.638;2023-05-19T08:36:24;97695.47;;;21.89;62.77
10464;BME280;5279;42.048;24.638;2023-05-19T08:38:53;97692.78;;;22.33;62.79
10464;BME280;5279;42.048;24.638;2023-05-19T08:41:20;97691.81;;;22.52;58.82
10464;BME280;5279;42.048;24.638;2023-05-19T08:44:25;97694.56;;;22.77;58.32
10464;BME280;5279;42.048;24.638;2023-05-19T08:46:53;97695.63;;;22.38;54.48
10464;BME280;5279;42.048;24.638;2023-05-19T08:49:24;97688.00;;;21.84;55.13
10464;BME280;5279;42.048;24.638;2023-05-19T08:51:59;97695.69;;;21.80;57.54
10464;BME280;5279;42.048;24.638;2023-05-19T08:54:40;97692.56;;;21.90;58.52
10464;BME280;5279;42.048;24.638;2023-05-19T08:57:09;97692.28;;;22.05;60.54
10464;BME280;5279;42.048;24.638;2023-05-19T08:59:37;97687.94;;;22.04;53.90
10464;BME280;5279;42.048;24.638;2023-05-19T09:02:05;97692.06;;;22.13;56.19
10464;BME280;5279;42.048;24.638;2023-05-19T09:04:34;97694.25;;;22.29;54.87
10464;BME280;5279;42.048;24.638;2023-05-19T09:07:02;97698.53;;;22.43;56.15
10464;BME280;5279;42.048;24.638;2023-05-19T09:09:30;97691.41;;;22.55;57.14
10464;BME280;5279;42.048;24.638;2023-05-19T09:11:57;97675.59;;;22.83;58.01
10464;BME280;5279;42.048;24.638;2023-05-19T09:14:25;97695.41;;;22.77;56.30
10464;BME280;5279;42.048;24.638;2023-05-19T09:16:52;97690.69;;;22.98;51.70
10464;BME280;5279;42.048;24.638;2023-05-19T09:19:19;97686.09;;;22.98;54.78
10464;BME280;5279;42.048;24.638;2023-05-19T09:21:56;97694.13;;;23.05;55.86
10464;BME280;5279;42.048;24.638;2023-05-19T09:24:24;97678.84;;;23.17;51.57
10464;BME280;5279;42.048;24.638;2023-05-19T09:26:54;97690.16;;;23.32;51.48
10464;BME280;5279;42.048;24.638;2023-05-19T09:29:21;97690.66;;;23.47;50.75
10464;BME280;5279;42.048;24.638;2023-05-19T09:31:49;97695.56;;;23.75;50.47
10464;BME280;5279;42.048;24.638;2023-05-19T09:34:16;97691.25;;;24.22;49.93
10464;BME280;5279;42.048;24.638;2023-05-19T09:36:45;97696.59;;;24.58;49.31
10464;BME280;5279;42.048;24.638;2023-05-19T09:39:14;97671.38;;;25.11;48.33
10464;BME280;5279;42.048;24.638;2023-05-19T09:41:41;97666.66;;;25.41;49.77
10464;BME280;5279;42.048;24.638;2023-05-19T09:44:13;97682.69;;;25.77;43.23
10464;BME280;5279;42.048;24.638;2023-05-19T09:46:47;97675.69;;;25.93;43.75
10464;BME280;5279;42.048;24.638;2023-05-19T09:49:19;97675.50;;;26.23;44.54
10464;BME280;5279;42.048;24.638;2023-05-19T09:51:52;97677.47;;;26.27;44.19
10464;BME280;5279;42.048;24.638;2023-05-19T09:54:20;97679.44;;;26.03;45.68
10464;BME280;5279;42.048;24.638;2023-05-19T09:56:55;97673.47;;;25.78;47.43
10464;BME280;5279;42.048;24.638;2023-05-19T09:59:25;97681.63;;;25.67;46.62
10464;BME280;5279;42.048;24.638;2023-05-19T10:01:53;97666.53;;;25.71;45.54
10464;BME280;5279;42.048;24.638;2023-05-19T10:04:21;97668.41;;;26.22;47.40
10464;BME280;5279;42.048;24.638;2023-05-19T10:06:49;97665.69;;;26.22;44.54
10464;BME280;5279;42.048;24.638;2023-05-19T10:09:20;97652.44;;;26.53;45.33
10464;BME280;5279;42.048;24.638;2023-05-19T10:11:50;97650.38;;;26.60;40.97
10464;BME280;5279;42.048;24.638;2023-05-19T10:14:18;97658.78;;;26.59;42.13
10464;BME280;5279;42.048;24.638;2023-05-19T10:16:48;97654.59;;;26.23;44.88
10464;BME280;5279;42.048;24.638;2023-05-19T10:19:18;97653.72;;;25.94;45.14
10464;BME280;5279;42.048;24.638;2023-05-19T10:21:46;97661.94;;;25.71;44.21
10464;BME280;5279;42.048;24.638;2023-05-19T10:24:15;97659.56;;;25.40;44.57
10464;BME280;5279;42.048;24.638;2023-05-19T10:26:45;97659.22;;;25.13;44.85
10464;BME280;5279;42.048;24.638;2023-05-19T10:29:20;97651.56;;;24.98;46.80
10464;BME280;5279;42.048;24.638;2023-05-19T10:31:50;97647.03;;;24.81;52.10
10464;BME280;5279;42.048;24.638;2023-05-19T10:34:31;97641.25;;;24.77;49.70
10464;BME280;5279;42.048;24.638;2023-05-19T10:37:11;97650.97;;;24.55;49.45
10464;BME280;5279;42.048;24.638;2023-05-19T10:39:42;97650.06;;;24.61;49.62
10464;BME280;5279;42.048;24.638;2023-05-19T10:42:14;97652.66;;;24.56;49.20
10464;BME280;5279;42.048;24.638;2023-05-19T10:44:52;97647.00;;;24.69;48.43
10464;BME280;5279;42.048;24.638;2023-05-19T10:47:25;97647.88;;;24.81;48.46
10464;BME280;5279;42.048;24.638;2023-05-19T10:49:52;97655.09;;;25.11;47.37
10464;BME280;5279;42.048;24.638;2023-05-19T10:52:21;97640.22;;;25.48;53.03
10464;BME280;5279;42.048;24.638;2023-05-19T10:54:50;97648.19;;;25.89;46.11
10464;BME280;5279;42.048;24.638;2023-05-19T10:57:20;97641.16;;;26.17;43.10
10464;BME280;5279;42.048;24.638;2023-05-19T10:59:51;97635.47;;;26.63;43.25
10464;BME280;5279;42.048;24.638;2023-05-19T11:02:38;97630.97;;;26.85;44.13
10464;BME280;5279;42.048;24.638;2023-05-19T11:05:07;97632.94;;;27.06;41.38
10464;BME280;5279;42.048;24.638;2023-05-19T11:07:35;97623.13;;;27.22;42.05
10464;BME280;5279;42.048;24.638;2023-05-19T11:10:04;97615.44;;;27.36;38.91
10464;BME280;5279;42.048;24.638;2023-05-19T11:12:39;97622.03;;;27.78;40.77
10464;BME280;5279;42.048;24.638;2023-05-19T11:15:08;97616.00;;;27.76;37.43
10464;BME280;5279;42.048;24.638;2023-05-19T11:17:35;97602.84;;;27.68;38.56
10464;BME280;5279;42.048;24.638;2023-05-19T11:20:07;97607.31;;;27.79;38.93
10464;BME280;5279;42.048;24.638;2023-05-19T11:22:35;97620.22;;;27.45;38.85
10464;BME280;5279;42.048;24.638;2023-05-19T11:25:03;97642.56;;;26.64;40.75
10464;BME280;5279;42.048;24.638;2023-05-19T11:27:33;97702.22;;;24.57;39.04
10464;BME280;5279;42.048;24.638;2023-05-19T11:30:08;97694.31;;;23.10;42.37
10464;BME280;5279;42.048;24.638;2023-05-19T11:32:39;97673.22;;;22.00;45.56
10464;BME280;5279;42.048;24.638;2023-05-19T11:35:08;97663.16;;;21.62;50.50
10464;BME280;5279;42.048;24.638;2023-05-19T11:37:36;97664.91;;;20.32;53.52
10464;BME280;5279;42.048;24.638;2023-05-19T11:40:05;97667.75;;;20.17;56.66
10464;BME280;5279;42.048;24.638;2023-05-19T11:42:34;97656.63;;;20.27;56.25
10464;BME280;5279;42.048;24.638;2023-05-19T11:45:02;97653.75;;;20.48;56.91
10464;BME280;5279;42.048;24.638;2023-05-19T11:47:30;97655.56;;;20.28;57.51
10464;BME280;5279;42.048;24.638;2023-05-19T11:49:58;97655.22;;;20.57;59.82
10464;BME280;5279;42.048;24.638;2023-05-19T11:52:27;97652.50;;;20.84;58.01
10464;BME280;5279;42.048;24.638;2023-05-19T11:54:54;97654.94;;;21.31;55.75
10464;BME280;5279;42.048;24.638;2023-05-19T11:57:21;97651.53;;;21.68;55.35
10464;BME280;5279;42.048;24.638;2023-05-19T11:59:48;97646.94;;;22.20;55.39
10464;BME280;5279;42.048;24.638;2023-05-19T12:02:17;97651.44;;;22.32;55.81
10464;BME280;5279;42.048;24.638;2023-05-19T12:04:45;97643.97;;;22.66;57.34
10464;BME280;5279;42.048;24.638;2023-05-19T12:07:13;97641.38;;;22.77;54.63
10464;BME280;5279;42.048;24.638;2023-05-19T12:09:43;97639.59;;;22.90;57.00
10464;BME280;5279;42.048;24.638;2023-05-19T12:12:12;97637.84;;;23.20;50.73
10464;BME280;5279;42.048;24.638;2023-05-19T12:14:39;97635.16;;;23.20;48.13
10464;BME280;5279;42.048;24.638;2023-05-19T12:17:10;97627.34;;;23.12;53.15
10464;BME280;5279;42.048;24.638;2023-05-19T12:19:38;97623.41;;;23.69;54.96
10464;BME280;5279;42.048;24.638;2023-05-19T12:22:06;97610.25;;;24.02;51.55
10464;BME280;5279;42.048;24.638;2023-05-19T12:24:34;97612.50;;;24.35;49.12
10464;BME280;5279;42.048;24.638;2023-05-19T12:27:09;97615.31;;;24.70;50.16
10464;BME280;5279;42.048;24.638;2023-05-19T12:29:37;97609.44;;;24.96;49.46
10464;BME280;5279;42.048;24.638;2023-05-19T12:32:04;97594.03;;;25.20;48.49
10464;BME280;5279;42.048;24.638;2023-05-19T12:34:34;97597.53;;;25.32;46.91
10464;BME280;5279;42.048;24.638;2023-05-19T12:37:01;97593.28;;;25.36;46.88
10464;BME280;5279;42.048;24.638;2023-05-19T12:39:28;97592.69;;;25.45;44.21
10464;BME280;5279;42.048;24.638;2023-05-19T12:42:00;97591.72;;;25.63;43.70
10464;BME280;5279;42.048;24.638;2023-05-19T12:44:29;97590.09;;;25.90;46.00
10464;BME280;5279;42.048;24.638;2023-05-19T12:46:56;97598.63;;;26.22;43.87
10464;BME280;5279;42.048;24.638;2023-05-19T12:49:23;97586.84;;;26.33;41.56
10464;BME280;5279;42.048;24.638;2023-05-19T12:51:51;97589.09;;;26.53;42.48
10464;BME280;5279;42.048;24.638;2023-05-19T12:54:18;97589.13;;;26.86;41.38
10464;BME280;5279;42.048;24.638;2023-05-19T12:56:50;97587.16;;;26.98;41.48
10464;BME280;5279;42.048;24.638;2023-05-19T12:59:21;97583.31;;;26.99;41.64
10464;BME280;5279;42.048;24.638;2023-05-19T13:01:56;97582.59;;;26.87;39.58
10464;BME280;5279;42.048;24.638;2023-05-19T13:04:23;97572.06;;;26.91;42.23
10464;BME280;5279;42.048;24.638;2023-05-19T13:06:51;97572.59;;;27.09;41.98
10464;BME280;5279;42.048;24.638;2023-05-19T13:09:18;97578.03;;;27.09;41.90